sensor_id;sensor_type;location;lat;lon;timestamp;temperature;humidity
66708;DHT22;53622;0.000;0.000;2022-08-19T00:01:49;23.10;89.30
66708;DHT22;53622;0.000;0.000;2022-08-19T00:04:23;23.10;89.10
66708;DHT22;53622;0.000;0.000;2022-08-19T00:06:54;23.10;88.90
66708;DHT22;53622;0.000;0.000;2022-08-19T00:09:24;23.10;88.80
66708;DHT22;53622;0.000;0.000;2022-08-19T00:11:54;23.10;88.90
66708;DHT22;53622;0.000;0.000;2022-08-19T00:14:25;23.10;88.80
66708;DHT22;53622;0.000;0.000;2022-08-19T00:16:54;23.10;88.80
66708;DHT22;53622;0.000;0.000;2022-08-19T00:19:25;23.10;88.80
66708;DHT22;53622;0.000;0.000;2022-08-19T00:21:55;23.10;88.60
66708;DHT22;53622;0.000;0.000;2022-08-19T00:24:24;23.10;88.80
66708;DHT22;53622;0.000;0.000;2022-08-19T00:26:53;23.10;88.70
66708;DHT22;53622;0.000;0.000;2022-08-19T00:29:44;23.00;88.80
66708;DHT22;53622;0.000;0.000;2022-08-19T00:32:19;23.10;89.00
66708;DHT22;53622;0.000;0.000;2022-08-19T00:34:52;23.00;89.00
66708;DHT22;53622;0.000;0.000;2022-08-19T00:37:22;23.10;89.00
66708;DHT22;53622;0.000;0.000;2022-08-19T00:39:53;23.10;89.90
66708;DHT22;53622;0.000;0.000;2022-08-19T00:42:23;23.10;89.00
66708;DHT22;53622;0.000;0.000;2022-08-19T00:44:56;23.10;88.80
66708;DHT22;53622;0.000;0.000;2022-08-19T00:47:25;23.10;88.90
66708;DHT22;53622;0.000;0.000;2022-08-19T00:49:57;23.00;88.70
66708;DHT22;53622;0.000;0.000;2022-08-19T00:52:30;23.10;88.90
66708;DHT22;53622;0.000;0.000;2022-08-19T00:55:02;23.10;88.80
66708;DHT22;53622;0.000;0.000;2022-08-19T00:57:34;23.00;88.80
66708;DHT22;53622;0.000;0.000;2022-08-19T01:00:07;23.10;89.10
66708;DHT22;53622;0.000;0.000;2022-08-19T01:02:37;23.10;89.00
66708;DHT22;53622;0.000;0.000;2022-08-19T01:05:11;23.00;88.90
66708;DHT22;53622;0.000;0.000;2022-08-19T01:07:42;23.00;88.80
66708;DHT22;53622;0.000;0.000;2022-08-19T01:10:19;23.00;88.80
66708;DHT22;53622;0.000;0.000;2022-08-19T01:12:49;23.10;88.80
66708;DHT22;53622;0.000;0.000;2022-08-19T01:15:23;23.00;88.90
66708;DHT22;53622;0.000;0.000;2022-08-19T01:17:53;23.10;88.80
66708;DHT22;53622;0.000;0.000;2022-08-19T01:20:26;23.10;88.90
66708;DHT22;53622;0.000;0.000;2022-08-19T01:22:58;23.00;88.90
66708;DHT22;53622;0.000;0.000;2022-08-19T01:25:30;23.00;88.80
66708;DHT22;53622;0.000;0.000;2022-08-19T01:28:00;23.00;88.70
66708;DHT22;53622;0.000;0.000;2022-08-19T01:30:37;23.00;89.00
66708;DHT22;53622;0.000;0.000;2022-08-19T01:33:11;23.00;88.80
66708;DHT22;53622;0.000;0.000;2022-08-19T01:35:41;23.00;88.70
66708;DHT22;53622;0.000;0.000;2022-08-19T01:38:22;23.00;88.90
66708;DHT22;53622;0.000;0.000;2022-08-19T01:40:51;23.00;88.80
66708;DHT22;53622;0.000;0.000;2022-08-19T01:43:21;23.00;88.90
66708;DHT22;53622;0.000;0.000;2022-08-19T01:45:50;23.00;88.80
66708;DHT22;53622;0.000;0.000;2022-08-19T01:48:20;23.00;88.90
66708;DHT22;53622;0.000;0.000;2022-08-19T01:50:51;23.00;88.80
66708;DHT22;53622;0.000;0.000;2022-08-19T01:53:22;23.00;88.50
66708;DHT22;53622;0.000;0.000;2022-08-19T01:55:57;23.00;88.80
66708;DHT22;53622;0.000;0.000;2022-08-19T01:58:30;23.00;88.70
66708;DHT22;53622;0.000;0.000;2022-08-19T02:01:01;23.00;88.80
66708;DHT22;53622;0.000;0.000;2022-08-19T02:03:31;23.00;88.80
66708;DHT22;53622;0.000;0.000;2022-08-19T02:06:02;23.00;88.80
66708;DHT22;53622;0.000;0.000;2022-08-19T02:08:36;23.00;88.80
66708;DHT22;53622;0.000;0.000;2022-08-19T02:11:06;23.00;88.90
66708;DHT22;53622;0.000;0.000;2022-08-19T02:13:36;23.00;88.90
66708;DHT22;53622;0.000;0.000;2022-08-19T02:16:05;23.00;88.80
66708;DHT22;53622;0.000;0.000;2022-08-19T02:18:34;22.90;88.80
66708;DHT22;53622;0.000;0.000;2022-08-19T02:21:04;23.00;88.90
66708;DHT22;53622;0.000;0.000;2022-08-19T02:23:35;23.00;89.10
66708;DHT22;53622;0.000;0.000;2022-08-19T02:26:04;22.90;89.00
66708;DHT22;53622;0.000;0.000;2022-08-19T02:28:34;23.00;89.30
66708;DHT22;53622;0.000;0.000;2022-08-19T02:31:09;22.90;89.20
66708;DHT22;53622;0.000;0.000;2022-08-19T02:33:38;22.90;89.20
66708;DHT22;53622;0.000;0.000;2022-08-19T02:36:09;22.90;89.30
66708;DHT22;53622;0.000;0.000;2022-08-19T02:38:40;22.90;89.30
66708;DHT22;53622;0.000;0.000;2022-08-19T02:41:16;22.90;89.20
66708;DHT22;53622;0.000;0.000;2022-08-19T02:43:48;22.90;89.20
66708;DHT22;53622;0.000;0.000;2022-08-19T02:46:37;22.90;89.20
66708;DHT22;53622;0.000;0.000;2022-08-19T02:49:07;22.90;89.10
66708;DHT22;53622;0.000;0.000;2022-08-19T02:51:40;22.90;89.20
66708;DHT22;53622;0.000;0.000;2022-08-19T02:54:12;22.90;89.20
66708;DHT22;53622;0.000;0.000;2022-08-19T02:56:43;22.90;89.10
66708;DHT22;53622;0.000;0.000;2022-08-19T02:59:13;22.90;89.10
66708;DHT22;53622;0.000;0.000;2022-08-19T03:01:42;22.90;89.00
66708;DHT22;53622;0.000;0.000;2022-08-19T03:04:13;22.90;88.90
66708;DHT22;53622;0.000;0.000;2022-08-19T03:06:45;23.00;89.00
66708;DHT22;53622;0.000;0.000;2022-08-19T03:09:16;23.00;88.90
66708;DHT22;53622;0.000;0.000;2022-08-19T03:11:46;23.00;88.70
66708;DHT22;53622;0.000;0.000;2022-08-19T03:14:19;23.00;88.70
66708;DHT22;53622;0.000;0.000;2022-08-19T03:16:50;22.90;88.80
66708;DHT22;53622;0.000;0.000;2022-08-19T03:19:20;23.00;88.70
66708;DHT22;53622;0.000;0.000;2022-08-19T03:21:50;22.90;88.60
66708;DHT22;53622;0.000;0.000;2022-08-19T03:24:21;22.90;88.70
66708;DHT22;53622;0.000;0.000;2022-08-19T03:26:54;22.90;88.60
66708;DHT22;53622;0.000;0.000;2022-08-19T03:29:26;22.90;88.60
66708;DHT22;53622;0.000;0.000;2022-08-19T03:31:59;22.90;88.50
66708;DHT22;53622;0.000;0.000;2022-08-19T03:34:33;22.90;88.70
66708;DHT22;53622;0.000;0.000;2022-08-19T03:37:04;23.00;88.60
66708;DHT22;53622;0.000;0.000;2022-08-19T03:39:37;22.90;88.60
66708;DHT22;53622;0.000;0.000;2022-08-19T03:42:07;22.90;88.50
66708;DHT22;53622;0.000;0.000;2022-08-19T03:44:56;23.00;88.70
66708;DHT22;53622;0.000;0.000;2022-08-19T03:47:26;22.90;88.40
66708;DHT22;53622;0.000;0.000;2022-08-19T03:49:55;22.90;88.60
66708;DHT22;53622;0.000;0.000;2022-08-19T03:52:24;22.90;88.60
66708;DHT22;53622;0.000;0.000;2022-08-19T03:54:55;22.90;88.60
66708;DHT22;53622;0.000;0.000;2022-08-19T03:57:24;22.90;88.40
66708;DHT22;53622;0.000;0.000;2022-08-19T03:59:58;22.90;88.60
66708;DHT22;53622;0.000;0.000;2022-08-19T04:02:40;22.90;88.40
66708;DHT22;53622;0.000;0.000;2022-08-19T04:05:27;23.00;88.70
66708;DHT22;53622;0.000;0.000;2022-08-19T04:07:57;23.00;89.40
66708;DHT22;53622;0.000;0.000;2022-08-19T04:10:28;22.90;88.60
66708;DHT22;53622;0.000;0.000;2022-08-19T04:12:57;22.90;88.70
66708;DHT22;53622;0.000;0.000;2022-08-19T04:15:27;22.90;88.60
66708;DHT22;53622;0.000;0.000;2022-08-19T04:18:01;22.90;88.70
66708;DHT22;53622;0.000;0.000;2022-08-19T04:20:30;22.90;88.70
66708;DHT22;53622;0.000;0.000;2022-08-19T04:23:00;23.00;88.70
66708;DHT22;53622;0.000;0.000;2022-08-19T04:25:35;22.90;88.60
66708;DHT22;53622;0.000;0.000;2022-08-19T04:28:05;22.90;88.60
66708;DHT22;53622;0.000;0.000;2022-08-19T04:30:39;22.90;88.70
66708;DHT22;53622;0.000;0.000;2022-08-19T04:33:09;22.90;88.80
66708;DHT22;53622;0.000;0.000;2022-08-19T04:35:40;22.90;89.60
66708;DHT22;53622;0.000;0.000;2022-08-19T04:38:11;22.90;88.90
66708;DHT22;53622;0.000;0.000;2022-08-19T04:40:42;22.90;88.90
66708;DHT22;53622;0.000;0.000;2022-08-19T04:43:29;23.00;88.90
66708;DHT22;53622;0.000;0.000;2022-08-19T04:46:04;22.90;88.70
66708;DHT22;53622;0.000;0.000;2022-08-19T04:48:34;22.90;88.70
66708;DHT22;53622;0.000;0.000;2022-08-19T04:51:11;22.90;88.70
66708;DHT22;53622;0.000;0.000;2022-08-19T04:53:41;22.90;88.80
66708;DHT22;53622;0.000;0.000;2022-08-19T04:56:15;22.90;88.90
66708;DHT22;53622;0.000;0.000;2022-08-19T04:58:47;22.90;89.00
66708;DHT22;53622;0.000;0.000;2022-08-19T05:01:21;22.90;88.90
66708;DHT22;53622;0.000;0.000;2022-08-19T05:03:51;22.90;89.10
66708;DHT22;53622;0.000;0.000;2022-08-19T05:06:21;22.90;89.30
66708;DHT22;53622;0.000;0.000;2022-08-19T05:08:51;22.90;89.30
66708;DHT22;53622;0.000;0.000;2022-08-19T05:11:24;22.90;89.10
66708;DHT22;53622;0.000;0.000;2022-08-19T05:13:55;22.90;89.00
66708;DHT22;53622;0.000;0.000;2022-08-19T05:16:25;22.90;88.90
66708;DHT22;53622;0.000;0.000;2022-08-19T05:18:55;22.90;89.10
66708;DHT22;53622;0.000;0.000;2022-08-19T05:21:42;22.90;89.00
66708;DHT22;53622;0.000;0.000;2022-08-19T05:24:29;22.90;89.20
66708;DHT22;53622;0.000;0.000;2022-08-19T05:27:03;22.90;89.20
66708;DHT22;53622;0.000;0.000;2022-08-19T05:29:34;22.90;89.20
66708;DHT22;53622;0.000;0.000;2022-08-19T05:32:05;22.90;89.20
66708;DHT22;53622;0.000;0.000;2022-08-19T05:34:36;22.90;89.30
66708;DHT22;53622;0.000;0.000;2022-08-19T05:37:07;22.90;89.30
66708;DHT22;53622;0.000;0.000;2022-08-19T05:39:37;22.90;89.20
66708;DHT22;53622;0.000;0.000;2022-08-19T05:42:10;22.90;89.30
66708;DHT22;53622;0.000;0.000;2022-08-19T05:44:41;22.90;89.50
66708;DHT22;53622;0.000;0.000;2022-08-19T05:47:13;22.90;89.40
66708;DHT22;53622;0.000;0.000;2022-08-19T05:49:43;22.80;89.20
66708;DHT22;53622;0.000;0.000;2022-08-19T05:52:14;22.90;89.40
66708;DHT22;53622;0.000;0.000;2022-08-19T05:54:46;22.90;89.50
66708;DHT22;53622;0.000;0.000;2022-08-19T05:57:20;22.90;89.50
66708;DHT22;53622;0.000;0.000;2022-08-19T05:59:49;22.90;90.10
66708;DHT22;53622;0.000;0.000;2022-08-19T06:02:25;22.90;89.60
66708;DHT22;53622;0.000;0.000;2022-08-19T06:04:54;22.90;90.30
66708;DHT22;53622;0.000;0.000;2022-08-19T06:07:24;22.90;91.50
66708;DHT22;53622;0.000;0.000;2022-08-19T06:09:53;22.80;92.00
66708;DHT22;53622;0.000;0.000;2022-08-19T06:12:29;22.80;92.60
66708;DHT22;53622;0.000;0.000;2022-08-19T06:15:05;22.70;92.80
66708;DHT22;53622;0.000;0.000;2022-08-19T06:17:36;22.80;93.10
66708;DHT22;53622;0.000;0.000;2022-08-19T06:20:07;22.60;93.20
66708;DHT22;53622;0.000;0.000;2022-08-19T06:22:40;22.70;93.40
66708;DHT22;53622;0.000;0.000;2022-08-19T06:25:10;22.70;93.50
66708;DHT22;53622;0.000;0.000;2022-08-19T06:27:41;22.70;93.70
66708;DHT22;53622;0.000;0.000;2022-08-19T06:30:30;22.70;94.00
66708;DHT22;53622;0.000;0.000;2022-08-19T06:33:00;22.70;94.30
66708;DHT22;53622;0.000;0.000;2022-08-19T06:35:30;22.70;94.30
66708;DHT22;53622;0.000;0.000;2022-08-19T06:37:59;22.70;94.50
66708;DHT22;53622;0.000;0.000;2022-08-19T06:40:28;22.70;94.70
66708;DHT22;53622;0.000;0.000;2022-08-19T06:42:59;22.70;94.60
66708;DHT22;53622;0.000;0.000;2022-08-19T06:45:36;22.70;94.70
66708;DHT22;53622;0.000;0.000;2022-08-19T06:48:06;22.70;94.60
66708;DHT22;53622;0.000;0.000;2022-08-19T06:50:38;22.70;94.70
66708;DHT22;53622;0.000;0.000;2022-08-19T06:53:07;22.60;94.70
66708;DHT22;53622;0.000;0.000;2022-08-19T06:55:38;22.60;94.80
66708;DHT22;53622;0.000;0.000;2022-08-19T06:58:10;22.60;95.00
66708;DHT22;53622;0.000;0.000;2022-08-19T07:00:40;22.60;95.10
66708;DHT22;53622;0.000;0.000;2022-08-19T07:03:09;22.60;95.30
66708;DHT22;53622;0.000;0.000;2022-08-19T07:05:41;22.60;95.30
66708;DHT22;53622;0.000;0.000;2022-08-19T07:08:13;22.60;95.60
66708;DHT22;53622;0.000;0.000;2022-08-19T07:10:46;22.60;95.40
66708;DHT22;53622;0.000;0.000;2022-08-19T07:13:18;22.50;95.30
66708;DHT22;53622;0.000;0.000;2022-08-19T07:15:49;22.60;95.30
66708;DHT22;53622;0.000;0.000;2022-08-19T07:18:19;22.50;95.20
66708;DHT22;53622;0.000;0.000;2022-08-19T07:20:50;22.60;95.30
66708;DHT22;53622;0.000;0.000;2022-08-19T07:23:19;22.60;95.40
66708;DHT22;53622;0.000;0.000;2022-08-19T07:25:50;22.50;95.30
66708;DHT22;53622;0.000;0.000;2022-08-19T07:28:21;22.50;95.40
66708;DHT22;53622;0.000;0.000;2022-08-19T07:30:52;22.60;95.60
66708;DHT22;53622;0.000;0.000;2022-08-19T07:33:22;22.50;96.00
66708;DHT22;53622;0.000;0.000;2022-08-19T07:35:54;22.50;96.30
66708;DHT22;53622;0.000;0.000;2022-08-19T07:38:24;22.50;96.50
66708;DHT22;53622;0.000;0.000;2022-08-19T07:40:53;22.50;97.20
66708;DHT22;53622;0.000;0.000;2022-08-19T07:43:24;22.50;96.90
66708;DHT22;53622;0.000;0.000;2022-08-19T07:46:01;22.50;97.10
66708;DHT22;53622;0.000;0.000;2022-08-19T07:48:31;22.50;97.40
66708;DHT22;53622;0.000;0.000;2022-08-19T07:51:02;22.50;97.30
66708;DHT22;53622;0.000;0.000;2022-08-19T07:53:34;22.60;97.20
66708;DHT22;53622;0.000;0.000;2022-08-19T07:56:06;22.60;97.10
66708;DHT22;53622;0.000;0.000;2022-08-19T07:58:40;22.50;97.10
66708;DHT22;53622;0.000;0.000;2022-08-19T08:01:12;22.60;97.10
66708;DHT22;53622;0.000;0.000;2022-08-19T08:03:42;22.60;97.00
66708;DHT22;53622;0.000;0.000;2022-08-19T08:06:29;22.60;97.20
66708;DHT22;53622;0.000;0.000;2022-08-19T08:09:21;22.60;97.20
66708;DHT22;53622;0.000;0.000;2022-08-19T08:11:53;22.60;97.50
66708;DHT22;53622;0.000;0.000;2022-08-19T08:14:26;22.60;97.40
66708;DHT22;53622;0.000;0.000;2022-08-19T08:17:03;22.60;97.60
66708;DHT22;53622;0.000;0.000;2022-08-19T08:19:37;22.60;97.30
66708;DHT22;53622;0.000;0.000;2022-08-19T08:22:09;22.60;97.70
66708;DHT22;53622;0.000;0.000;2022-08-19T08:25:02;22.60;97.70
66708;DHT22;53622;0.000;0.000;2022-08-19T08:27:35;22.60;97.70
66708;DHT22;53622;0.000;0.000;2022-08-19T08:30:10;22.70;97.50
66708;DHT22;53622;0.000;0.000;2022-08-19T08:32:40;22.70;97.30
66708;DHT22;53622;0.000;0.000;2022-08-19T08:35:14;22.60;97.30
66708;DHT22;53622;0.000;0.000;2022-08-19T08:37:45;22.70;97.20
66708;DHT22;53622;0.000;0.000;2022-08-19T08:40:19;22.70;97.10
66708;DHT22;53622;0.000;0.000;2022-08-19T08:42:53;22.70;97.00
66708;DHT22;53622;0.000;0.000;2022-08-19T08:45:28;22.70;97.20
66708;DHT22;53622;0.000;0.000;2022-08-19T08:48:16;22.70;97.30
66708;DHT22;53622;0.000;0.000;2022-08-19T08:50:52;22.70;97.20
66708;DHT22;53622;0.000;0.000;2022-08-19T08:53:24;22.70;97.10
66708;DHT22;53622;0.000;0.000;2022-08-19T08:56:03;22.70;97.10
66708;DHT22;53622;0.000;0.000;2022-08-19T08:58:42;22.70;97.30
66708;DHT22;53622;0.000;0.000;2022-08-19T09:01:22;22.70;97.20
66708;DHT22;53622;0.000;0.000;2022-08-19T09:03:57;22.70;97.10
66708;DHT22;53622;0.000;0.000;2022-08-19T09:06:42;22.70;97.10
66708;DHT22;53622;0.000;0.000;2022-08-19T09:09:16;22.70;97.20
66708;DHT22;53622;0.000;0.000;2022-08-19T09:11:56;22.70;97.20
66708;DHT22;53622;0.000;0.000;2022-08-19T09:14:41;22.70;97.10
66708;DHT22;53622;0.000;0.000;2022-08-19T09:17:22;22.70;97.10
66708;DHT22;53622;0.000;0.000;2022-08-19T09:19:57;22.70;97.10
66708;DHT22;53622;0.000;0.000;2022-08-19T09:22:31;22.60;97.20
66708;DHT22;53622;0.000;0.000;2022-08-19T09:25:02;22.70;97.20
66708;DHT22;53622;0.000;0.000;2022-08-19T09:27:32;22.70;97.20
66708;DHT22;53622;0.000;0.000;2022-08-19T09:30:14;22.70;97.10
66708;DHT22;53622;0.000;0.000;2022-08-19T09:32:46;22.70;96.80
66708;DHT22;53622;0.000;0.000;2022-08-19T09:35:21;22.70;96.70
66708;DHT22;53622;0.000;0.000;2022-08-19T09:37:51;22.70;96.60
66708;DHT22;53622;0.000;0.000;2022-08-19T09:40:27;22.70;96.60
66708;DHT22;53622;0.000;0.000;2022-08-19T09:42:57;22.70;96.70
66708;DHT22;53622;0.000;0.000;2022-08-19T09:45:28;22.70;96.70
66708;DHT22;53622;0.000;0.000;2022-08-19T09:47:59;22.70;96.80
66708;DHT22;53622;0.000;0.000;2022-08-19T09:50:28;22.70;96.60
66708;DHT22;53622;0.000;0.000;2022-08-19T09:53:01;22.80;96.60
66708;DHT22;53622;0.000;0.000;2022-08-19T09:55:33;22.70;97.00
66708;DHT22;53622;0.000;0.000;2022-08-19T09:58:03;22.80;96.80
66708;DHT22;53622;0.000;0.000;2022-08-19T10:00:33;22.80;97.00
66708;DHT22;53622;0.000;0.000;2022-08-19T10:03:03;22.70;97.00
66708;DHT22;53622;0.000;0.000;2022-08-19T10:05:33;22.70;96.80
66708;DHT22;53622;0.000;0.000;2022-08-19T10:08:29;22.70;96.70
66708;DHT22;53622;0.000;0.000;2022-08-19T10:10:59;22.80;96.60
66708;DHT22;53622;0.000;0.000;2022-08-19T10:13:49;22.70;96.50
66708;DHT22;53622;0.000;0.000;2022-08-19T10:16:20;22.70;96.20
66708;DHT22;53622;0.000;0.000;2022-08-19T10:18:58;22.80;96.10
66708;DHT22;53622;0.000;0.000;2022-08-19T10:21:33;22.80;96.00
66708;DHT22;53622;0.000;0.000;2022-08-19T10:24:05;22.80;96.00
66708;DHT22;53622;0.000;0.000;2022-08-19T10:26:38;22.80;92.30
66708;DHT22;53622;0.000;0.000;2022-08-19T10:29:09;22.80;92.10
66708;DHT22;53622;0.000;0.000;2022-08-19T10:31:39;22.80;92.00
66708;DHT22;53622;0.000;0.000;2022-08-19T10:34:30;22.80;91.90
66708;DHT22;53622;0.000;0.000;2022-08-19T10:37:00;22.80;91.90
66708;DHT22;53622;0.000;0.000;2022-08-19T10:39:31;22.80;91.80
66708;DHT22;53622;0.000;0.000;2022-08-19T10:42:10;22.80;91.90
66708;DHT22;53622;0.000;0.000;2022-08-19T10:44:41;22.80;91.90
66708;DHT22;53622;0.000;0.000;2022-08-19T10:47:11;22.80;91.80
66708;DHT22;53622;0.000;0.000;2022-08-19T10:49:54;22.80;91.80
66708;DHT22;53622;0.000;0.000;2022-08-19T10:52:41;22.90;91.80
66708;DHT22;53622;0.000;0.000;2022-08-19T10:55:19;22.90;92.00
66708;DHT22;53622;0.000;0.000;2022-08-19T10:58:11;22.90;92.30
66708;DHT22;53622;0.000;0.000;2022-08-19T11:00:41;22.90;92.40
66708;DHT22;53622;0.000;0.000;2022-08-19T11:03:11;22.90;92.40
66708;DHT22;53622;0.000;0.000;2022-08-19T11:05:42;22.90;92.40
66708;DHT22;53622;0.000;0.000;2022-08-19T11:08:11;22.90;92.50
66708;DHT22;53622;0.000;0.000;2022-08-19T11:10:51;22.90;92.20
66708;DHT22;53622;0.000;0.000;2022-08-19T11:13:27;22.90;92.10
66708;DHT22;53622;0.000;0.000;2022-08-19T11:16:02;22.90;92.30
66708;DHT22;53622;0.000;0.000;2022-08-19T11:18:39;22.90;92.00
66708;DHT22;53622;0.000;0.000;2022-08-19T11:21:13;22.90;92.10
66708;DHT22;53622;0.000;0.000;2022-08-19T11:23:45;22.90;92.10
66708;DHT22;53622;0.000;0.000;2022-08-19T11:26:16;22.90;92.10
66708;DHT22;53622;0.000;0.000;2022-08-19T11:28:47;22.90;92.00
66708;DHT22;53622;0.000;0.000;2022-08-19T11:31:18;22.90;92.30
66708;DHT22;53622;0.000;0.000;2022-08-19T11:33:51;22.90;92.20
66708;DHT22;53622;0.000;0.000;2022-08-19T11:36:23;22.90;92.50
66708;DHT22;53622;0.000;0.000;2022-08-19T11:38:53;23.00;92.20
66708;DHT22;53622;0.000;0.000;2022-08-19T11:41:23;23.00;92.30
66708;DHT22;53622;0.000;0.000;2022-08-19T11:43:53;23.00;92.40
66708;DHT22;53622;0.000;0.000;2022-08-19T11:46:25;23.00;92.40
66708;DHT22;53622;0.000;0.000;2022-08-19T11:48:57;23.00;92.30
66708;DHT22;53622;0.000;0.000;2022-08-19T11:51:30;23.00;92.40
66708;DHT22;53622;0.000;0.000;2022-08-19T11:54:00;23.00;92.30
66708;DHT22;53622;0.000;0.000;2022-08-19T11:56:30;23.00;92.70
66708;DHT22;53622;0.000;0.000;2022-08-19T11:59:00;23.00;92.10
66708;DHT22;53622;0.000;0.000;2022-08-19T12:01:30;23.00;92.10
66708;DHT22;53622;0.000;0.000;2022-08-19T12:04:01;23.00;92.00
66708;DHT22;53622;0.000;0.000;2022-08-19T12:06:33;23.00;91.90
66708;DHT22;53622;0.000;0.000;2022-08-19T12:09:08;23.00;91.90
66708;DHT22;53622;0.000;0.000;2022-08-19T12:11:39;23.00;91.90
66708;DHT22;53622;0.000;0.000;2022-08-19T12:14:10;23.00;91.90
66708;DHT22;53622;0.000;0.000;2022-08-19T12:16:45;23.00;91.80
66708;DHT22;53622;0.000;0.000;2022-08-19T12:19:19;23.00;91.80
66708;DHT22;53622;0.000;0.000;2022-08-19T12:21:51;23.00;91.80
66708;DHT22;53622;0.000;0.000;2022-08-19T12:24:23;23.00;91.70
66708;DHT22;53622;0.000;0.000;2022-08-19T12:26:52;23.00;91.70
66708;DHT22;53622;0.000;0.000;2022-08-19T12:29:28;23.00;91.70
66708;DHT22;53622;0.000;0.000;2022-08-19T12:31:58;23.00;91.60
66708;DHT22;53622;0.000;0.000;2022-08-19T12:34:31;23.00;91.60
66708;DHT22;53622;0.000;0.000;2022-08-19T12:37:04;23.00;91.60
66708;DHT22;53622;0.000;0.000;2022-08-19T12:39:36;23.00;91.60
66708;DHT22;53622;0.000;0.000;2022-08-19T12:42:06;23.00;91.60
66708;DHT22;53622;0.000;0.000;2022-08-19T12:44:37;23.00;91.60
66708;DHT22;53622;0.000;0.000;2022-08-19T12:47:11;23.10;91.60
66708;DHT22;53622;0.000;0.000;2022-08-19T12:49:42;23.00;91.60
66708;DHT22;53622;0.000;0.000;2022-08-19T12:52:23;23.10;91.60
66708;DHT22;53622;0.000;0.000;2022-08-19T12:54:54;23.10;91.60
66708;DHT22;53622;0.000;0.000;2022-08-19T12:57:25;23.10;91.60
66708;DHT22;53622;0.000;0.000;2022-08-19T13:00:01;23.10;91.70
66708;DHT22;53622;0.000;0.000;2022-08-19T13:02:32;23.10;91.80
66708;DHT22;53622;0.000;0.000;2022-08-19T13:05:07;23.10;91.70
66708;DHT22;53622;0.000;0.000;2022-08-19T13:07:39;23.10;91.80
66708;DHT22;53622;0.000;0.000;2022-08-19T13:10:14;23.10;91.90
66708;DHT22;53622;0.000;0.000;2022-08-19T13:12:44;23.10;92.30
66708;DHT22;53622;0.000;0.000;2022-08-19T13:15:15;23.10;91.90
66708;DHT22;53622;0.000;0.000;2022-08-19T13:17:52;23.10;91.60
66708;DHT22;53622;0.000;0.000;2022-08-19T13:20:24;23.10;91.90
66708;DHT22;53622;0.000;0.000;2022-08-19T13:22:55;23.10;91.60
66708;DHT22;53622;0.000;0.000;2022-08-19T13:25:25;23.10;91.40
66708;DHT22;53622;0.000;0.000;2022-08-19T13:27:54;23.10;91.40
66708;DHT22;53622;0.000;0.000;2022-08-19T13:30:24;23.10;92.30
66708;DHT22;53622;0.000;0.000;2022-08-19T13:33:10;23.10;92.90
66708;DHT22;53622;0.000;0.000;2022-08-19T13:35:46;23.10;92.90
66708;DHT22;53622;0.000;0.000;2022-08-19T13:38:19;23.10;93.00
66708;DHT22;53622;0.000;0.000;2022-08-19T13:40:50;23.10;93.10
66708;DHT22;53622;0.000;0.000;2022-08-19T13:43:22;23.10;92.80
66708;DHT22;53622;0.000;0.000;2022-08-19T13:45:53;23.10;92.60
66708;DHT22;53622;0.000;0.000;2022-08-19T13:48:25;23.10;92.50
66708;DHT22;53622;0.000;0.000;2022-08-19T13:50:55;23.10;92.30
66708;DHT22;53622;0.000;0.000;2022-08-19T13:53:26;23.10;92.70
66708;DHT22;53622;0.000;0.000;2022-08-19T13:55:55;23.10;92.70
66708;DHT22;53622;0.000;0.000;2022-08-19T13:58:25;23.00;92.50
66708;DHT22;53622;0.000;0.000;2022-08-19T14:00:54;23.00;92.70
66708;DHT22;53622;0.000;0.000;2022-08-19T14:03:23;23.00;92.70
66708;DHT22;53622;0.000;0.000;2022-08-19T14:05:52;23.00;92.80
66708;DHT22;53622;0.000;0.000;2022-08-19T14:08:22;23.00;92.60
66708;DHT22;53622;0.000;0.000;2022-08-19T14:10:53;23.00;92.70
66708;DHT22;53622;0.000;0.000;2022-08-19T14:13:23;23.00;93.00
66708;DHT22;53622;0.000;0.000;2022-08-19T14:15:53;23.00;92.90
66708;DHT22;53622;0.000;0.000;2022-08-19T14:18:23;23.00;92.60
66708;DHT22;53622;0.000;0.000;2022-08-19T14:20:55;23.00;92.70
66708;DHT22;53622;0.000;0.000;2022-08-19T14:23:25;23.00;93.10
66708;DHT22;53622;0.000;0.000;2022-08-19T14:26:07;23.00;93.10
66708;DHT22;53622;0.000;0.000;2022-08-19T14:28:37;23.00;93.00
66708;DHT22;53622;0.000;0.000;2022-08-19T14:31:09;23.00;93.10
66708;DHT22;53622;0.000;0.000;2022-08-19T14:33:38;23.00;93.20
66708;DHT22;53622;0.000;0.000;2022-08-19T14:36:08;23.00;93.30
66708;DHT22;53622;0.000;0.000;2022-08-19T14:38:38;23.00;93.10
66708;DHT22;53622;0.000;0.000;2022-08-19T14:41:14;23.00;93.60
66708;DHT22;53622;0.000;0.000;2022-08-19T14:43:45;23.00;93.40
66708;DHT22;53622;0.000;0.000;2022-08-19T14:46:17;23.00;93.50
66708;DHT22;53622;0.000;0.000;2022-08-19T14:48:48;23.00;93.70
66708;DHT22;53622;0.000;0.000;2022-08-19T14:51:20;23.00;93.60
66708;DHT22;53622;0.000;0.000;2022-08-19T14:53:50;23.00;93.70
66708;DHT22;53622;0.000;0.000;2022-08-19T14:56:24;23.00;93.70
66708;DHT22;53622;0.000;0.000;2022-08-19T14:58:55;23.00;93.70
66708;DHT22;53622;0.000;0.000;2022-08-19T15:01:27;23.00;93.40
66708;DHT22;53622;0.000;0.000;2022-08-19T15:03:56;23.00;93.40
66708;DHT22;53622;0.000;0.000;2022-08-19T15:06:26;23.00;93.50
66708;DHT22;53622;0.000;0.000;2022-08-19T15:08:57;23.00;93.40
66708;DHT22;53622;0.000;0.000;2022-08-19T15:11:32;23.00;93.60
66708;DHT22;53622;0.000;0.000;2022-08-19T15:14:02;23.00;93.50
66708;DHT22;53622;0.000;0.000;2022-08-19T15:16:33;23.00;93.40
66708;DHT22;53622;0.000;0.000;2022-08-19T15:19:02;23.00;93.10
66708;DHT22;53622;0.000;0.000;2022-08-19T15:21:31;23.00;93.10
66708;DHT22;53622;0.000;0.000;2022-08-19T15:24:01;23.00;93.20
66708;DHT22;53622;0.000;0.000;2022-08-19T15:26:32;23.00;93.00
66708;DHT22;53622;0.000;0.000;2022-08-19T15:29:02;23.00;92.90
66708;DHT22;53622;0.000;0.000;2022-08-19T15:31:32;23.00;92.80
66708;DHT22;53622;0.000;0.000;2022-08-19T15:34:05;23.00;92.80
66708;DHT22;53622;0.000;0.000;2022-08-19T15:36:35;23.00;92.70
66708;DHT22;53622;0.000;0.000;2022-08-19T15:39:05;23.00;92.80
66708;DHT22;53622;0.000;0.000;2022-08-19T15:41:38;23.10;92.80
66708;DHT22;53622;0.000;0.000;2022-08-19T15:44:10;23.10;92.80
66708;DHT22;53622;0.000;0.000;2022-08-19T15:46:41;23.10;92.60
66708;DHT22;53622;0.000;0.000;2022-08-19T15:49:12;23.10;92.70
66708;DHT22;53622;0.000;0.000;2022-08-19T15:51:44;23.10;92.80
66708;DHT22;53622;0.000;0.000;2022-08-19T15:54:18;23.10;93.00
66708;DHT22;53622;0.000;0.000;2022-08-19T15:56:51;23.10;93.10
66708;DHT22;53622;0.000;0.000;2022-08-19T15:59:38;23.00;93.00
66708;DHT22;53622;0.000;0.000;2022-08-19T16:02:31;23.10;93.30
66708;DHT22;53622;0.000;0.000;2022-08-19T16:05:22;23.00;93.50
66708;DHT22;53622;0.000;0.000;2022-08-19T16:08:09;23.10;93.20
66708;DHT22;53622;0.000;0.000;2022-08-19T16:10:39;23.10;93.50
66708;DHT22;53622;0.000;0.000;2022-08-19T16:13:10;23.10;93.40
66708;DHT22;53622;0.000;0.000;2022-08-19T16:15:39;23.10;93.30
66708;DHT22;53622;0.000;0.000;2022-08-19T16:18:11;23.10;93.40
66708;DHT22;53622;0.000;0.000;2022-08-19T16:20:40;23.10;93.50